Time;durP1;ratioP1;P1;durP2;ratioP2;P2;SDS_P1;SDS_P2;PMS_P1;PMS_P2;Temp;Humidity;BMP_temperature;BMP_pressure;BME280_temperature;BME280_humidity;BME280_pressure;Samples;Min_cycle;Max_cycle;Signal;HPM_P1;HPM_P2
2022/05/31 00:02:10;;;;;;;18.85;14.98;;;17.50;99.90;;;;;;5053838;28;20135;-84
2022/05/31 00:04:36;;;;;;;20.08;13.93;;;17.50;99.90;;;;;;5053866;28;20047;-85
2022/05/31 00:07:02;;;;;;;16.08;11.57;;;17.60;99.90;;;;;;5053860;28;20467;-85
2022/05/31 00:09:27;;;;;;;19.02;12.73;;;17.60;99.90;;;;;;5053653;28;20033;-85
2022/05/31 00:11:55;;;;;;;15.07;11.45;;;17.50;99.90;;;;;;5053591;28;20025;-85
2022/05/31 00:14:21;;;;;;;20.58;13.88;;;17.50;99.90;;;;;;5053681;28;20533;-84
2022/05/31 00:16:47;;;;;;;16.23;13.82;;;17.50;99.90;;;;;;5054959;28;20067;-85
2022/05/31 00:19:15;;;;;;;18.67;12.27;;;17.40;99.90;;;;;;5053651;28;20464;-85
2022/05/31 00:21:49;;;;;;;16.67;11.80;;;17.50;99.90;;;;;;5053459;28;20028;-85
2022/05/31 00:24:19;;;;;;;17.20;10.48;;;17.40;99.90;;;;;;5053489;28;20025;-84
2022/05/31 00:26:45;;;;;;;14.25;11.30;;;17.40;99.90;;;;;;5053490;28;20041;-84
2022/05/31 00:29:11;;;;;;;18.00;11.60;;;17.40;99.90;;;;;;5053203;28;20029;-84
2022/05/31 00:31:40;;;;;;;18.02;13.35;;;17.40;99.90;;;;;;5052862;28;20049;-84
2022/05/31 00:34:07;;;;;;;17.08;13.90;;;17.40;99.90;;;;;;5054644;28;20071;-84
2022/05/31 00:36:33;;;;;;;22.33;17.23;;;17.40;99.90;;;;;;5053185;28;20025;-84
2022/05/31 00:38:59;;;;;;;25.17;18.20;;;17.40;99.90;;;;;;5054470;28;20055;-84
2022/05/31 00:41:26;;;;;;;27.08;21.02;;;17.40;99.90;;;;;;5053238;28;20120;-84
2022/05/31 00:43:59;;;;;;;27.55;20.58;;;17.40;99.90;;;;;;5052923;28;20120;-84
2022/05/31 00:46:49;;;;;;;35.47;22.48;;;17.40;99.90;;;;;;5053971;28;20049;-83
2022/05/31 00:49:25;;;;;;;40.47;27.77;;;17.40;99.90;;;;;;5052292;28;20041;-84
2022/05/31 00:51:54;;;;;;;40.97;29.83;;;17.40;99.90;;;;;;5053042;28;20036;-84
2022/05/31 00:54:23;;;;;;;35.85;27.33;;;17.40;99.90;;;;;;5052935;28;20021;-84
2022/05/31 00:56:53;;;;;;;30.02;23.77;;;17.40;99.90;;;;;;5052862;28;20021;-84
2022/05/31 00:59:33;;;;;;;40.40;28.58;;;17.40;99.90;;;;;;5053198;28;20021;-84
2022/05/31 01:02:00;;;;;;;34.72;25.80;;;17.40;99.90;;;;;;5053576;28;20044;-84
2022/05/31 01:04:44;;;;;;;31.95;23.35;;;17.40;99.90;;;;;;5054587;28;20025;-84
2022/05/31 01:07:10;;;;;;;29.05;22.30;;;17.40;99.90;;;;;;5054179;28;20025;-84
2022/05/31 01:09:37;;;;;;;29.45;22.15;;;17.40;99.90;;;;;;5054546;28;20525;-84
2022/05/31 01:12:04;;;;;;;27.35;23.25;;;17.40;99.90;;;;;;5053823;28;20044;-84
2022/05/31 01:14:31;;;;;;;27.75;21.80;;;17.30;99.90;;;;;;5052669;28;20071;-84
2022/05/31 01:17:00;;;;;;;28.83;23.05;;;17.30;99.90;;;;;;5053918;28;20023;-84
2022/05/31 01:22:11;;;;;;;33.92;25.52;;;17.30;99.90;;;;;;5054888;28;20040;-84
2022/05/31 01:25:06;;;;;;;28.45;23.20;;;17.30;99.90;;;;;;5052731;28;20029;-84
2022/05/31 01:27:46;;;;;;;30.48;21.67;;;17.30;99.90;;;;;;5037221;28;20123;-84
2022/05/31 01:30:12;;;;;;;;;;;17.30;99.90;;;;;;5052730;28;20034;-84
2022/05/31 01:32:47;;;;;;;28.65;21.83;;;17.20;99.90;;;;;;5052294;28;19925;-84
2022/05/31 01:35:30;;;;;;;26.38;19.83;;;17.30;99.90;;;;;;5052793;28;20021;-84
2022/05/31 01:38:05;;;;;;;26.17;20.58;;;17.30;99.90;;;;;;5052562;28;20079;-84
2022/05/31 01:41:01;;;;;;;23.73;18.40;;;17.30;99.90;;;;;;5053007;28;20029;-84
2022/05/31 01:43:26;;;;;;;26.25;18.92;;;17.30;99.90;;;;;;5052763;28;20052;-84
2022/05/31 01:46:09;;;;;;;26.55;20.13;;;17.30;99.90;;;;;;5052593;28;20470;-84
2022/05/31 01:48:37;;;;;;;29.70;21.52;;;17.30;99.90;;;;;;5052367;28;20021;-84
2022/05/31 01:51:04;;;;;;;27.20;20.23;;;17.30;99.90;;;;;;5052297;28;20043;-84
2022/05/31 01:53:32;;;;;;;31.08;20.83;;;17.30;99.90;;;;;;5054485;28;20078;-84
2022/05/31 01:55:58;;;;;;;24.60;20.05;;;17.30;99.90;;;;;;5056045;28;20036;-84
2022/05/31 01:58:28;;;;;;;25.70;19.95;;;17.30;99.90;;;;;;5056555;28;20467;-84
2022/05/31 02:00:53;;;;;;;28.43;21.37;;;17.20;99.90;;;;;;5056210;28;20029;-84
2022/05/31 02:03:20;;;;;;;26.65;20.02;;;17.20;99.90;;;;;;5055938;28;20269;-84
2022/05/31 02:05:49;;;;;;;26.27;20.17;;;17.20;99.90;;;;;;5056014;28;20025;-85
2022/05/31 02:08:17;;;;;;;29.25;21.10;;;17.20;99.90;;;;;;5056278;28;20791;-84
2022/05/31 02:10:43;;;;;;;30.48;21.40;;;17.10;99.90;;;;;;5039427;28;20021;-84
2022/05/31 02:13:09;;;;;;;24.77;19.35;;;17.00;99.90;;;;;;5055882;28;20036;-84
2022/05/31 02:15:35;;;;;;;25.25;18.15;;;17.00;99.90;;;;;;5055121;28;20060;-85
2022/05/31 02:18:01;;;;;;;24.98;18.38;;;17.00;99.90;;;;;;5056271;28;20049;-85
2022/05/31 02:20:27;;;;;;;25.08;19.20;;;16.90;99.90;;;;;;5055998;28;20028;-85
2022/05/31 02:22:53;;;;;;;30.70;20.23;;;16.90;99.90;;;;;;5057148;28;20029;-85
2022/05/31 02:25:19;;;;;;;33.50;23.20;;;16.80;99.90;;;;;;5055524;28;20112;-85
2022/05/31 02:27:45;;;;;;;29.20;22.20;;;16.80;99.90;;;;;;5055422;28;20506;-85
2022/05/31 02:30:13;;;;;;;26.13;19.77;;;16.90;99.90;;;;;;5038897;28;20037;-85
2022/05/31 02:32:40;;;;;;;27.45;18.75;;;17.00;99.90;;;;;;5055129;28;20045;-84
2022/05/31 02:35:09;;;;;;;25.48;18.88;;;17.00;99.90;;;;;;5056258;28;20021;-85
2022/05/31 02:37:36;;;;;;;25.35;19.55;;;17.10;99.90;;;;;;5055825;28;20025;-85
2022/05/31 02:40:02;;;;;;;29.77;20.98;;;17.20;99.90;;;;;;5038957;28;20132;-85
2022/05/31 02:42:27;;;;;;;28.65;19.85;;;17.20;99.90;;;;;;5055011;28;20546;-85
2022/05/31 02:44:53;;;;;;;22.73;18.05;;;17.30;99.90;;;;;;5039411;28;20041;-85
2022/05/31 02:47:20;;;;;;;24.55;18.02;;;17.40;99.90;;;;;;5038876;28;20033;-84
2022/05/31 02:49:47;;;;;;;27.00;20.73;;;17.40;99.90;;;;;;5055288;28;20025;-85
2022/05/31 02:52:15;;;;;;;31.30;22.52;;;17.40;99.90;;;;;;5055223;28;20025;-84
2022/05/31 02:54:42;;;;;;;30.17;20.88;;;17.40;99.90;;;;;;5055170;28;20029;-85
2022/05/31 02:57:08;;;;;;;28.33;21.65;;;17.40;99.90;;;;;;5055270;28;20025;-85
2022/05/31 02:59:35;;;;;;;26.70;19.73;;;17.40;99.90;;;;;;5056191;28;20057;-85
2022/05/31 03:02:00;;;;;;;26.65;18.65;;;17.50;99.90;;;;;;5055386;28;20122;-85
2022/05/31 03:04:28;;;;;;;28.15;21.50;;;17.50;99.90;;;;;;5055778;28;20090;-85
2022/05/31 03:06:54;;;;;;;33.03;23.50;;;17.50;99.90;;;;;;5055173;28;20029;-85
2022/05/31 03:09:20;;;;;;;30.00;21.75;;;17.50;99.90;;;;;;5038897;28;20025;-85
2022/05/31 03:11:55;;;;;;;24.98;20.58;;;17.50;99.90;;;;;;5038065;28;20036;-85
2022/05/31 03:14:31;;;;;;;28.15;21.10;;;17.60;99.90;;;;;;5055040;28;20029;-85
2022/05/31 03:17:12;;;;;;;22.85;19.70;;;17.60;99.90;;;;;;5038425;28;20025;-86
2022/05/31 03:19:45;;;;;;;23.23;18.55;;;17.70;99.90;;;;;;5054869;28;20141;-86
2022/05/31 03:22:16;;;;;;;26.13;19.83;;;17.80;99.90;;;;;;5038626;28;20033;-85
2022/05/31 03:24:51;;;;;;;25.63;18.88;;;17.90;99.90;;;;;;5054680;28;20037;-85
2022/05/31 03:27:18;;;;;;;22.75;18.77;;;17.90;99.90;;;;;;5054587;28;20021;-85
2022/05/31 03:29:46;;;;;;;21.33;16.15;;;18.10;99.90;;;;;;5055015;28;20457;-85
2022/05/31 03:32:16;;;;;;;24.08;17.02;;;18.20;99.90;;;;;;5038589;28;20434;-85
2022/05/31 03:34:42;;;;;;;20.30;16.15;;;18.30;99.90;;;;;;5056113;28;20387;-86
2022/05/31 03:37:09;;;;;;;22.30;17.02;;;18.30;99.90;;;;;;5038133;28;20025;-86
2022/05/31 03:39:36;;;;;;;18.52;15.30;;;18.30;99.90;;;;;;5037842;28;20043;-86
2022/05/31 03:42:02;;;;;;;21.02;16.05;;;18.30;99.90;;;;;;5054505;28;20033;-85
2022/05/31 03:44:28;;;;;;;18.00;15.48;;;18.20;99.90;;;;;;5054494;28;20032;-86
2022/05/31 03:46:54;;;;;;;21.17;15.13;;;18.10;99.90;;;;;;5037813;28;20128;-86
2022/05/31 03:49:20;;;;;;;20.80;15.77;;;18.10;99.90;;;;;;5054818;28;20056;-85
2022/05/31 03:51:47;;;;;;;19.63;14.95;;;18.10;99.90;;;;;;5054598;28;20070;-86
2022/05/31 03:54:12;;;;;;;16.23;13.93;;;18.20;99.90;;;;;;5054018;28;20021;-85
2022/05/31 03:56:38;;;;;;;20.45;14.60;;;18.20;99.90;;;;;;5054419;28;20486;-85
2022/05/31 03:59:04;;;;;;;21.77;15.60;;;18.20;99.90;;;;;;5055181;28;20025;-86
2022/05/31 04:01:31;;;;;;;20.80;15.98;;;18.20;99.90;;;;;;5055684;28;20029;-85
2022/05/31 04:03:58;;;;;;;19.00;13.95;;;18.20;99.90;;;;;;5054128;28;20033;-85
2022/05/31 04:06:24;;;;;;;20.42;16.02;;;18.20;99.90;;;;;;5037619;28;20040;-85
2022/05/31 04:08:49;;;;;;;20.92;14.70;;;18.30;99.90;;;;;;5055278;28;20021;-85
2022/05/31 04:11:16;;;;;;;20.45;15.77;;;18.40;99.90;;;;;;5055072;28;20028;-86
2022/05/31 04:13:43;;;;;;;15.60;13.68;;;18.40;99.90;;;;;;5037792;28;20455;-86
2022/05/31 04:16:13;;;;;;;19.52;14.52;;;18.50;99.90;;;;;;5052966;28;20107;-86
2022/05/31 04:18:39;;;;;;;17.88;13.75;;;18.50;99.90;;;;;;5054152;28;20083;-86
2022/05/31 04:21:11;;;;;;;20.17;15.20;;;18.50;99.90;;;;;;5054748;28;20028;-86
2022/05/31 04:26:22;;;;;;;15.90;12.82;;;18.60;99.90;;;;;;5055342;28;20031;-85
2022/05/31 04:28:47;;;;;;;15.18;12.43;;;18.70;99.90;;;;;;5036970;28;20487;-86
2022/05/31 04:31:13;;;;;;;17.80;12.95;;;18.80;99.90;;;;;;5053200;28;20071;-86
2022/05/31 04:33:39;;;;;;;15.73;12.23;;;18.90;99.90;;;;;;5053561;28;20025;-86
2022/05/31 04:36:12;;;;;;;14.10;11.32;;;19.00;99.90;;;;;;5053316;28;20075;-86
2022/05/31 04:38:38;;;;;;;13.80;11.30;;;19.10;99.90;;;;;;5036616;28;20055;-85
2022/05/31 04:41:05;;;;;;;18.75;14.25;;;19.20;99.90;;;;;;5053294;28;20475;-86
2022/05/31 04:43:32;;;;;;;16.38;12.93;;;19.30;99.90;;;;;;5053023;28;20025;-86
2022/05/31 04:46:08;;;;;;;17.05;12.50;;;19.40;99.90;;;;;;5052824;28;20017;-86
2022/05/31 04:48:34;;;;;;;14.65;12.38;;;19.50;99.90;;;;;;5053633;28;20052;-86
2022/05/31 04:51:00;;;;;;;15.07;12.18;;;19.50;99.90;;;;;;5036623;28;20582;-86
2022/05/31 04:53:27;;;;;;;13.63;10.25;;;19.60;99.90;;;;;;5053002;28;20037;-86
2022/05/31 04:56:06;;;;;;;17.02;13.48;;;19.70;99.90;;;;;;5052990;28;20021;-87
2022/05/31 04:58:33;;;;;;;13.60;12.05;;;19.70;99.90;;;;;;5036626;28;20021;-86
2022/05/31 05:01:01;;;;;;;16.77;12.77;;;19.70;99.90;;;;;;5053019;28;20021;-86
2022/05/31 05:03:29;;;;;;;17.48;13.98;;;19.30;99.90;;;;;;5037605;28;20048;-87
2022/05/31 05:06:06;;;;;;;18.27;13.38;;;19.30;99.90;;;;;;5036909;28;20063;-87
2022/05/31 05:08:32;;;;;;;14.77;12.10;;;19.30;99.90;;;;;;5053199;28;20605;-87
2022/05/31 05:11:07;;;;;;;15.23;11.70;;;19.30;99.90;;;;;;5053052;28;20021;-87
2022/05/31 05:13:34;;;;;;;14.85;11.43;;;19.50;99.90;;;;;;5036484;28;20029;-87
2022/05/31 05:16:00;;;;;;;15.13;11.18;;;19.60;99.90;;;;;;5053089;28;20036;-87
2022/05/31 05:18:27;;;;;;;14.10;11.30;;;19.70;99.90;;;;;;5052886;28;20380;-87
2022/05/31 05:20:53;;;;;;;14.80;11.98;;;19.80;99.90;;;;;;5052529;28;20031;-87
2022/05/31 05:23:20;;;;;;;16.75;11.02;;;19.90;99.90;;;;;;5052610;28;20021;-87
2022/05/31 05:25:54;;;;;;;13.77;10.80;;;20.00;99.90;;;;;;5036446;28;20535;-83
2022/05/31 05:31:06;;;;;;;14.93;10.48;;;19.90;99.90;;;;;;5053695;28;20047;-86
2022/05/31 05:33:32;;;;;;;13.80;9.82;;;19.80;99.90;;;;;;5052500;28;20029;-86
2022/05/31 05:35:58;;;;;;;10.15;8.43;;;19.80;99.90;;;;;;5032865;28;20467;-87
2022/05/31 05:38:24;;;;;;;13.57;8.70;;;19.90;99.90;;;;;;5051945;28;20021;-86
2022/05/31 05:40:51;;;;;;;11.85;8.48;;;20.00;99.90;;;;;;5053144;28;20028;-87
2022/05/31 05:43:17;;;;;;;11.27;9.10;;;20.10;99.90;;;;;;5052723;28;20021;-87
2022/05/31 05:45:43;;;;;;;11.57;8.30;;;20.00;99.90;;;;;;5053697;28;20376;-87
2022/05/31 05:48:10;;;;;;;11.52;8.73;;;20.10;99.90;;;;;;5052667;28;21096;-87
2022/05/31 05:50:37;;;;;;;13.15;8.85;;;20.10;99.90;;;;;;5049525;28;20051;-86
2022/05/31 05:53:06;;;;;;;10.38;8.07;;;20.00;99.90;;;;;;5053254;28;20029;-86
2022/05/31 05:55:33;;;;;;;11.20;7.88;;;20.00;99.90;;;;;;5035385;28;20051;-86
2022/05/31 05:58:00;;;;;;;10.82;8.48;;;20.20;99.90;;;;;;5035821;28;20028;-86
2022/05/31 06:00:26;;;;;;;11.70;8.23;;;20.40;99.90;;;;;;5051539;28;20053;-85
2022/05/31 10:42:26;;;;;;;8.63;4.30;;;27.00;81.60;;;;;;5114211;27;20365;-85
2022/05/31 10:44:55;;;;;;;6.80;4.75;;;26.80;82.10;;;;;;5111944;28;20363;-86
2022/05/31 10:47:22;;;;;;;12.50;4.30;;;26.90;83.30;;;;;;5110412;28;20035;-84
2022/05/31 10:49:49;;;;;;;10.50;4.82;;;27.00;84.20;;;;;;5110406;28;20020;-83
2022/05/31 10:52:46;;;;;;;9.82;4.72;;;27.00;84.80;;;;;;5110434;28;20115;-82
2022/05/31 10:55:22;;;;;;;8.57;4.85;;;27.10;84.90;;;;;;5109975;28;20485;-83
2022/05/31 10:58:06;;;;;;;8.18;5.13;;;26.70;85.10;;;;;;5110142;28;20034;-80
2022/05/31 11:00:56;;;;;;;8.40;4.80;;;26.50;84.80;;;;;;5109763;28;20539;-82
2022/05/31 11:03:32;;;;;;;7.60;5.13;;;26.30;87.30;;;;;;5109880;28;20024;-83
2022/05/31 11:06:17;;;;;;;8.48;5.30;;;26.20;87.50;;;;;;5109833;28;20020;-83
2022/05/31 11:12:05;;;;;;;9.38;5.13;;;26.20;87.50;;;;;;5111009;28;20035;-82
2022/05/31 11:14:55;;;;;;;6.40;4.68;;;26.10;87.40;;;;;;5110876;28;20048;-81
2022/05/31 11:17:24;;;;;;;;;;;25.90;87.60;;;;;;5110432;28;20111;-81
2022/05/31 11:20:09;;;;;;;8.68;5.03;;;26.00;88.00;;;;;;5109657;28;20399;-82
2022/05/31 11:23:29;;;;;;;6.97;4.28;;;26.00;87.50;;;;;;5112429;28;20023;-81
2022/05/31 11:25:58;;;;;;;10.13;4.60;;;26.00;87.30;;;;;;5031579;28;20033;-84
2022/05/31 11:58:19;;;;;;;5.70;4.53;;;26.30;86.40;;;;;;5110739;27;20547;-93
2022/05/31 12:01:01;;;;;;;8.40;4.22;;;29.10;77.10;;;;;;5028330;28;20038;-90
2022/05/31 12:03:41;;;;;;;8.05;4.40;;;29.10;76.50;;;;;;4996442;28;20065;-89
2022/05/31 12:06:32;;;;;;;7.22;4.50;;;29.50;76.70;;;;;;5059660;28;20106;-88
2022/05/31 12:09:17;;;;;;;9.20;5.20;;;29.40;75.00;;;;;;5074717;28;20111;-92
2022/05/31 12:11:52;;;;;;;9.23;4.90;;;29.10;75.50;;;;;;5073656;28;20025;-89
2022/05/31 12:14:22;;;;;;;10.23;4.60;;;29.40;75.20;;;;;;5073699;28;20478;-93
2022/05/31 12:16:49;;;;;;;9.38;5.00;;;29.80;75.70;;;;;;5075587;28;20389;-91
2022/05/31 12:19:41;;;;;;;4.95;4.43;;;30.00;74.70;;;;;;5078112;28;20034;-93
2022/05/31 12:22:22;;;;;;;5.85;4.68;;;30.20;72.90;;;;;;5076356;28;20122;-90
2022/05/31 12:24:58;;;;;;;7.30;6.05;;;30.40;72.70;;;;;;5076362;28;20031;-92
2022/05/31 12:27:51;;;;;;;9.43;7.35;;;30.40;73.00;;;;;;5095517;28;20099;-94
2022/05/31 12:30:19;;;;;;;7.57;6.25;;;30.20;72.20;;;;;;5086794;28;20028;-91
2022/05/31 12:32:47;;;;;;;8.95;6.57;;;30.20;73.70;;;;;;5076385;28;20075;-91
2022/05/31 12:35:31;;;;;;;12.20;6.90;;;30.30;73.50;;;;;;5073650;28;20119;-92
2022/05/31 12:38:00;;;;;;;12.75;8.57;;;30.50;72.70;;;;;;5073466;28;20028;-96
2022/05/31 12:40:35;;;;;;;12.95;7.60;;;30.00;71.90;;;;;;5074133;28;20039;-91
2022/05/31 12:43:04;;;;;;;8.95;8.05;;;29.50;73.20;;;;;;5076799;28;20025;-96
2022/05/31 12:45:33;;;;;;;15.02;9.38;;;29.00;74.20;;;;;;5074098;28;20032;-92
2022/05/31 12:48:19;;;;;;;9.87;8.93;;;28.20;75.30;;;;;;5073282;28;20024;-94
2022/05/31 12:51:08;;;;;;;10.93;9.23;;;27.60;76.60;;;;;;5073084;28;20253;-90
2022/05/31 18:07:53;;;;;;;7.00;5.65;;;20.20;97.30;;;;;;5075143;28;20774;-89
2022/05/31 18:10:21;;;;;;;6.28;5.63;;;20.00;97.60;;;;;;5065352;28;20033;-89
2022/05/31 18:12:51;;;;;;;6.82;5.80;;;20.00;98.10;;;;;;5067969;28;20124;-90
2022/05/31 18:15:18;;;;;;;9.07;5.50;;;19.90;98.30;;;;;;5073774;28;20462;-89
2022/05/31 18:17:45;;;;;;;5.63;5.13;;;19.90;98.50;;;;;;5073619;28;20033;-90
2022/05/31 18:20:12;;;;;;;5.75;5.20;;;19.90;98.50;;;;;;5073260;28;20030;-88
2022/05/31 18:22:40;;;;;;;5.78;5.28;;;19.90;98.60;;;;;;5073796;28;20021;-90
2022/05/31 18:25:07;;;;;;;6.25;5.35;;;19.90;98.80;;;;;;5073590;28;20035;-89
2022/05/31 18:27:35;;;;;;;7.45;6.63;;;19.90;98.80;;;;;;5073204;28;20024;-89
2022/05/31 18:30:01;;;;;;;9.13;6.80;;;19.80;98.80;;;;;;5073391;28;20050;-89
2022/05/31 18:32:32;;;;;;;12.77;8.45;;;19.80;98.80;;;;;;5073251;28;20020;-89
2022/05/31 18:35:02;;;;;;;7.53;6.63;;;19.80;98.90;;;;;;5070086;28;20024;-90
2022/05/31 18:42:24;;;;;;;6.18;5.13;;;19.70;99.00;;;;;;5081482;28;20025;-90
2022/05/31 18:44:53;;;;;;;5.10;4.70;;;19.70;99.00;;;;;;5065904;28;20024;-89
2022/05/31 18:47:20;;;;;;;5.93;5.05;;;19.60;99.10;;;;;;5061510;28;20025;-89
2022/05/31 18:49:46;;;;;;;6.95;5.28;;;19.60;99.10;;;;;;5061707;28;20025;-90
2022/05/31 18:52:14;;;;;;;7.38;5.30;;;19.60;99.20;;;;;;5062469;28;20107;-89
2022/05/31 18:54:40;;;;;;;5.30;4.75;;;19.60;99.30;;;;;;5063688;28;20017;-90
2022/05/31 18:57:05;;;;;;;5.50;4.65;;;19.50;99.30;;;;;;5063602;28;20448;-89
2022/05/31 18:59:32;;;;;;;5.20;4.70;;;19.50;99.50;;;;;;5065625;28;20033;-89
2022/05/31 19:02:16;;;;;;;5.00;4.57;;;19.50;99.50;;;;;;5066294;28;20029;-89
2022/05/31 19:04:49;;;;;;;5.53;5.03;;;19.40;99.90;;;;;;5066115;28;20034;-89
2022/05/31 19:07:16;;;;;;;5.45;4.95;;;19.40;99.70;;;;;;5051902;28;20053;-89
2022/05/31 19:09:43;;;;;;;5.78;4.93;;;19.30;99.80;;;;;;5045151;28;20017;-89
2022/05/31 19:12:11;;;;;;;7.07;5.32;;;19.30;99.90;;;;;;5041353;28;20017;-89
2022/05/31 19:14:38;;;;;;;5.53;5.07;;;19.30;99.90;;;;;;5044869;28;20037;-90
2022/05/31 19:17:06;;;;;;;5.05;4.65;;;19.30;99.90;;;;;;5036034;28;20028;-89
2022/05/31 19:19:33;;;;;;;7.68;5.43;;;19.20;99.90;;;;;;5028288;28;20427;-89
2022/05/31 19:21:59;;;;;;;5.65;5.15;;;19.20;99.90;;;;;;5027298;28;20036;-90
2022/05/31 19:24:25;;;;;;;6.80;4.85;;;19.20;99.90;;;;;;5047473;28;20603;-90
2022/05/31 19:26:51;;;;;;;5.60;5.10;;;19.20;99.90;;;;;;5046418;28;20551;-89
2022/05/31 19:29:17;;;;;;;8.63;5.00;;;19.10;99.90;;;;;;5028646;28;20068;-89
2022/05/31 19:31:46;;;;;;;5.60;5.10;;;19.10;99.90;;;;;;5023767;28;20426;-90
2022/05/31 19:34:37;;;;;;;5.22;4.75;;;19.00;99.90;;;;;;5019580;28;20021;-89
2022/05/31 19:37:03;;;;;;;7.80;4.70;;;19.00;99.90;;;;;;5019387;28;20048;-89
2022/05/31 19:39:29;;;;;;;6.70;5.53;;;19.00;99.90;;;;;;5036843;28;20419;-89
2022/05/31 19:41:56;;;;;;;5.50;5.00;;;18.90;99.90;;;;;;5019301;28;20041;-90
2022/05/31 19:44:22;;;;;;;5.55;5.05;;;18.80;99.90;;;;;;5019255;28;20112;-89
2022/05/31 19:46:48;;;;;;;6.10;5.00;;;18.80;99.90;;;;;;5030505;28;20041;-90
2022/05/31 19:49:14;;;;;;;5.68;5.10;;;18.80;99.90;;;;;;5018341;28;20033;-89
2022/05/31 19:51:40;;;;;;;5.07;4.68;;;18.80;99.90;;;;;;5021276;28;20029;-90
2022/05/31 19:54:08;;;;;;;5.45;4.70;;;18.70;99.90;;;;;;5038916;28;20036;-88
2022/05/31 19:56:34;;;;;;;7.13;4.78;;;18.70;99.90;;;;;;5038815;28;20036;-89
2022/05/31 19:59:00;;;;;;;5.35;4.82;;;18.70;99.90;;;;;;5056435;28;20017;-89
2022/05/31 20:01:26;;;;;;;6.30;5.28;;;18.60;99.90;;;;;;5038540;28;20123;-90
2022/05/31 20:03:51;;;;;;;5.57;5.10;;;18.60;99.90;;;;;;5038424;28;20036;-90
2022/05/31 20:06:21;;;;;;;5.25;4.75;;;18.60;99.90;;;;;;5045082;28;20131;-94
2022/05/31 20:11:34;;;;;;;6.40;4.68;;;18.50;99.90;;;;;;5036687;28;19932;-90
2022/05/31 20:13:59;;;;;;;6.85;5.13;;;18.50;99.90;;;;;;5026513;28;20059;-89
2022/05/31 20:16:25;;;;;;;6.88;4.90;;;18.40;99.90;;;;;;5056201;28;20064;-89
2022/05/31 20:19:05;;;;;;;5.55;4.93;;;18.40;99.90;;;;;;5055216;28;20025;-88
2022/05/31 20:21:32;;;;;;;4.97;4.50;;;18.40;99.90;;;;;;5054646;28;20021;-88
2022/05/31 20:23:58;;;;;;;5.03;4.53;;;18.30;99.90;;;;;;5054661;28;20029;-88
2022/05/31 20:26:25;;;;;;;4.30;4.00;;;18.30;99.90;;;;;;5054320;28;20024;-88
2022/05/31 20:28:51;;;;;;;5.13;4.63;;;18.30;99.90;;;;;;5055342;28;20021;-89
2022/05/31 20:31:17;;;;;;;9.70;4.70;;;18.20;99.90;;;;;;5053992;28;20017;-88
2022/05/31 20:33:43;;;;;;;7.22;4.55;;;18.20;99.90;;;;;;5055581;28;20021;-88
2022/05/31 20:36:10;;;;;;;5.28;4.80;;;18.20;99.90;;;;;;5054432;28;20036;-88
2022/05/31 20:38:39;;;;;;;4.93;4.47;;;18.10;99.90;;;;;;5050024;28;20025;-88
2022/05/31 20:41:10;;;;;;;5.45;4.30;;;18.10;99.90;;;;;;5055321;28;20065;-88
2022/05/31 20:43:36;;;;;;;5.03;4.50;;;18.00;99.90;;;;;;5055387;28;20033;-88
2022/05/31 20:46:02;;;;;;;4.88;4.47;;;18.00;99.90;;;;;;5037655;28;20131;-88
2022/05/31 20:48:28;;;;;;;5.60;4.68;;;17.90;99.90;;;;;;5037696;28;20032;-88
2022/05/31 20:50:54;;;;;;;5.50;4.05;;;17.90;99.90;;;;;;5055322;28;20025;-88
2022/05/31 20:53:24;;;;;;;4.80;4.40;;;17.90;99.90;;;;;;5037392;28;20078;-89
2022/05/31 20:55:51;;;;;;;;;;;17.80;99.90;;;;;;5037810;28;20444;-88
2022/05/31 20:58:17;;;;;;;6.55;4.35;;;17.80;99.90;;;;;;5037398;28;19971;-89
2022/05/31 21:00:43;;;;;;;5.95;4.05;;;17.80;99.90;;;;;;5037834;28;20037;-88
2022/05/31 21:03:09;;;;;;;4.60;4.20;;;17.70;99.90;;;;;;5037360;28;20100;-88
2022/05/31 21:05:35;;;;;;;7.45;4.13;;;17.70;99.90;;;;;;5036888;28;20064;-89
2022/05/31 21:08:02;;;;;;;4.55;4.15;;;17.60;99.90;;;;;;5055254;28;20029;-88
2022/05/31 21:10:31;;;;;;;4.68;4.20;;;17.60;99.90;;;;;;5037201;28;20021;-88
2022/05/31 21:12:57;;;;;;;4.93;4.45;;;17.60;99.90;;;;;;5037125;28;20021;-88
2022/05/31 21:15:23;;;;;;;5.28;4.40;;;17.60;99.90;;;;;;5037061;28;20467;-88
2022/05/31 21:17:49;;;;;;;5.32;4.38;;;17.50;99.90;;;;;;5054795;28;20029;-88
2022/05/31 21:20:15;;;;;;;4.72;4.20;;;17.50;99.90;;;;;;5036942;28;20036;-88
2022/05/31 21:22:41;;;;;;;4.35;3.95;;;17.50;99.90;;;;;;5037195;28;20021;-88
2022/05/31 21:25:45;;;;;;;4.50;4.10;;;17.50;99.90;;;;;;5037040;28;20036;-88
2022/05/31 21:28:16;;;;;;;4.95;3.92;;;17.40;99.90;;;;;;5037093;28;20112;-88
2022/05/31 21:30:42;;;;;;;5.07;3.83;;;17.40;99.90;;;;;;5037044;28;20029;-88
2022/05/31 21:33:10;;;;;;;4.53;3.83;;;17.40;99.90;;;;;;5036756;28;20025;-88
2022/05/31 21:35:36;;;;;;;4.60;4.20;;;17.40;99.90;;;;;;5053920;28;20025;-88
2022/05/31 21:38:05;;;;;;;4.60;4.20;;;17.30;99.90;;;;;;5053236;28;20045;-88
2022/05/31 21:43:16;;;;;;;4.93;3.90;;;17.20;99.90;;;;;;5054346;28;20550;-88
2022/05/31 21:45:43;;;;;;;5.65;4.03;;;17.20;99.90;;;;;;5053039;28;20052;-88
2022/05/31 21:48:09;;;;;;;4.32;4.03;;;17.20;99.90;;;;;;5053069;28;20022;-88
2022/05/31 21:50:45;;;;;;;7.00;4.22;;;17.20;99.90;;;;;;5054330;28;20025;-89
2022/05/31 21:53:11;;;;;;;5.93;5.30;;;17.10;99.90;;;;;;5053213;28;20026;-87
2022/05/31 21:55:37;;;;;;;5.03;4.25;;;17.10;99.90;;;;;;5054041;28;20028;-88
2022/05/31 21:58:05;;;;;;;6.28;4.22;;;17.10;99.90;;;;;;5052879;28;20467;-88
2022/05/31 22:00:40;;;;;;;4.82;4.35;;;17.10;99.90;;;;;;5053154;28;20538;-88
2022/05/31 22:03:07;;;;;;;4.90;4.03;;;17.10;99.90;;;;;;5054368;28;20021;-88
2022/05/31 22:05:32;;;;;;;4.13;3.78;;;17.00;99.90;;;;;;5053927;28;20020;-90
2022/05/31 22:07:58;;;;;;;5.45;4.10;;;17.00;99.90;;;;;;5054173;28;20021;-91
2022/05/31 22:10:24;;;;;;;3.90;3.60;;;17.00;99.90;;;;;;5054420;28;20070;-91
2022/05/31 22:12:50;;;;;;;5.43;4.13;;;17.00;99.90;;;;;;5036334;28;20360;-91
2022/05/31 22:15:19;;;;;;;5.43;4.57;;;17.00;99.90;;;;;;5037147;28;20031;-90
2022/05/31 22:17:45;;;;;;;6.18;4.68;;;16.90;99.90;;;;;;5036312;28;20506;-91
2022/05/31 22:20:12;;;;;;;6.63;4.30;;;16.90;99.90;;;;;;5035971;28;20537;-92
2022/05/31 22:22:38;;;;;;;6.20;4.50;;;16.90;99.90;;;;;;5053997;28;20074;-91
2022/05/31 22:25:14;;;;;;;4.70;4.30;;;16.90;99.90;;;;;;5036201;28;20029;-94
2022/05/31 22:27:43;;;;;;;4.40;4.10;;;16.90;99.90;;;;;;5036058;28;20506;-91
2022/05/31 22:30:13;;;;;;;4.78;4.28;;;16.90;99.90;;;;;;5036255;28;20017;-91
2022/05/31 22:32:38;;;;;;;4.60;4.20;;;16.90;99.90;;;;;;5036318;28;20055;-91
2022/05/31 22:35:06;;;;;;;5.07;4.03;;;16.90;99.90;;;;;;5053763;28;20037;-91
2022/05/31 22:37:32;;;;;;;4.72;4.32;;;16.80;99.90;;;;;;5054015;28;20060;-91
2022/05/31 22:40:01;;;;;;;6.07;5.00;;;16.80;99.90;;;;;;5036243;28;20029;-91
2022/05/31 22:42:27;;;;;;;6.38;4.80;;;16.80;99.90;;;;;;5036382;28;20489;-90
2022/05/31 22:44:58;;;;;;;6.38;4.38;;;16.70;99.90;;;;;;5036124;28;20391;-90
2022/05/31 22:47:24;;;;;;;5.57;4.10;;;16.70;99.90;;;;;;5053607;28;20109;-91
2022/05/31 22:49:50;;;;;;;4.50;4.10;;;16.70;99.90;;;;;;5036175;28;20045;-91
2022/05/31 22:52:16;;;;;;;5.13;4.30;;;16.70;99.90;;;;;;5036088;28;20112;-91
2022/05/31 22:54:41;;;;;;;4.40;4.00;;;16.70;99.90;;;;;;5039935;28;20048;-92
2022/05/31 22:57:07;;;;;;;4.47;4.07;;;16.70;99.90;;;;;;5039715;28;20029;-91
2022/05/31 22:59:33;;;;;;;5.25;4.07;;;16.70;99.90;;;;;;5049844;28;20039;-91
2022/05/31 23:02:01;;;;;;;4.85;4.40;;;16.70;99.90;;;;;;5059640;28;20081;-91
2022/05/31 23:04:31;;;;;;;5.95;4.25;;;16.70;99.90;;;;;;5059595;28;20024;-92
2022/05/31 23:06:57;;;;;;;;;;;16.70;99.90;;;;;;5059845;28;20094;-92
2022/05/31 23:09:23;;;;;;;5.78;4.32;;;16.60;99.90;;;;;;5059192;28;19908;-91
2022/05/31 23:11:50;;;;;;;6.53;4.35;;;16.50;99.90;;;;;;5059470;28;20111;-91
2022/05/31 23:14:16;;;;;;;6.10;4.18;;;16.60;99.90;;;;;;5059474;28;20055;-91
2022/05/31 23:16:42;;;;;;;4.30;4.00;;;16.50;99.90;;;;;;5059477;28;20036;-92
2022/05/31 23:19:11;;;;;;;5.75;4.50;;;16.50;99.90;;;;;;5077349;28;20028;-91
2022/05/31 23:21:42;;;;;;;5.43;4.72;;;16.40;99.90;;;;;;5059279;28;20082;-92
2022/05/31 23:24:09;;;;;;;4.97;4.32;;;16.40;99.90;;;;;;5059147;28;20124;-91
2022/05/31 23:26:34;;;;;;;4.68;4.25;;;16.40;99.90;;;;;;5059061;28;20029;-91
2022/05/31 23:29:05;;;;;;;5.20;4.70;;;16.40;99.90;;;;;;5059341;28;20070;-91
2022/05/31 23:31:33;;;;;;;6.00;4.40;;;16.30;99.90;;;;;;5058930;28;20074;-91
2022/05/31 23:33:59;;;;;;;4.70;4.25;;;16.30;99.90;;;;;;5058975;28;20123;-91
2022/05/31 23:36:25;;;;;;;4.68;4.28;;;16.30;99.90;;;;;;5058993;28;20101;-90